Terminal Aerodrome Forecast
Issued by NWS Riverton, WY

Home | Current Version | Previous Version | Text Only | Print | Product List | Glossary On
Versions: 1 2 3 4 5 6 7 8 9 10 11 12 13 14
000
FTUS45 KRIW 202325
TAFRIW
TAF
KRIW 202325Z 2100/2124 VRB03KT P6SM SCT100 BKN150
     FM210400 30013KT P6SM SCT060 BKN090
     FM211500 VRB06KT P6SM SCT090=

USA.gov is the U.S. government's official web portal to all federal, state and local government web resources and services.